createdAt,value
2023-05-21T00:00:31.065Z,1016.16
2023-05-21T00:01:31.027Z,1016.12
2023-05-21T00:02:31.053Z,1016.14
2023-05-21T00:03:31.114Z,1016.09
2023-05-21T00:04:31.007Z,1016.09
2023-05-21T00:05:31.009Z,1016.08
2023-05-21T00:06:31.010Z,1016.09
2023-05-21T00:07:31.012Z,1016.07
2023-05-21T00:08:30.931Z,1016.07
2023-05-21T00:09:30.922Z,1016.03
2023-05-21T00:10:30.904Z,1015.99
2023-05-21T00:11:30.976Z,1015.99
2023-05-21T00:12:30.867Z,1015.95
2023-05-21T00:13:30.845Z,1015.95
2023-05-21T00:14:30.871Z,1015.94
2023-05-21T00:15:30.840Z,1015.97
2023-05-21T00:16:30.823Z,1015.92
2023-05-21T00:17:30.841Z,1015.94
2023-05-21T00:18:30.795Z,1015.94
2023-05-21T00:19:30.834Z,1015.94
2023-05-21T00:20:30.739Z,1015.95
2023-05-21T00:21:30.751Z,1015.92
2023-05-21T00:22:30.759Z,1015.89
2023-05-21T00:23:30.749Z,1015.90
2023-05-21T00:24:30.698Z,1015.89
2023-05-21T00:25:30.675Z,1015.90
2023-05-21T00:26:30.658Z,1015.88
2023-05-21T00:27:30.714Z,1015.93
2023-05-21T00:28:30.628Z,1015.88
2023-05-21T00:29:30.626Z,1015.86
2023-05-21T00:30:30.662Z,1015.86
2023-05-21T00:31:30.650Z,1015.87
2023-05-21T00:32:30.641Z,1015.89
2023-05-21T00:33:30.554Z,1015.89
2023-05-21T00:34:30.605Z,1015.88
2023-05-21T00:35:30.539Z,1015.87
2023-05-21T00:36:30.520Z,1015.88
2023-05-21T00:37:30.533Z,1015.85
2023-05-21T00:38:30.490Z,1015.85
2023-05-21T00:39:30.483Z,1015.84
2023-05-21T00:40:30.464Z,1015.85
2023-05-21T00:41:30.449Z,1015.86
2023-05-21T00:42:30.490Z,1015.82
2023-05-21T00:43:30.435Z,1015.81
2023-05-21T00:44:30.437Z,1015.78
2023-05-21T00:45:30.452Z,1015.78
2023-05-21T00:46:30.495Z,1015.73
2023-05-21T00:47:30.398Z,1015.75
2023-05-21T00:48:30.368Z,1015.70
2023-05-21T00:49:30.372Z,1015.73
2023-05-21T00:50:30.335Z,1015.71
2023-05-21T00:51:30.449Z,1015.70
2023-05-21T00:52:30.319Z,1015.68
2023-05-21T00:53:30.276Z,1015.65
2023-05-21T00:54:30.256Z,1015.67
2023-05-21T00:55:30.264Z,1015.66
2023-05-21T00:56:30.244Z,1015.70
2023-05-21T00:57:30.258Z,1015.69
2023-05-21T00:58:30.208Z,1015.72
2023-05-21T00:59:30.203Z,1015.72
2023-05-21T01:00:30.197Z,1015.72
2023-05-21T01:01:30.265Z,1015.70
2023-05-21T01:02:30.253Z,1015.72
2023-05-21T01:03:30.217Z,1015.72
2023-05-21T01:04:30.156Z,1015.72
2023-05-21T01:05:30.120Z,1015.73
2023-05-21T01:06:30.124Z,1015.74
2023-05-21T01:07:30.096Z,1015.74
2023-05-21T01:08:30.060Z,1015.76
2023-05-21T01:09:30.032Z,1015.73
2023-05-21T01:10:30.048Z,1015.74
2023-05-21T01:11:30.025Z,1015.71
2023-05-21T01:12:30.006Z,1015.71
2023-05-21T01:13:29.994Z,1015.70
2023-05-21T01:14:29.985Z,1015.70
2023-05-21T01:15:29.950Z,1015.71
2023-05-21T01:16:30.044Z,1015.69
2023-05-21T01:17:30.069Z,1015.66
2023-05-21T01:18:30.059Z,1015.67
2023-05-21T01:19:29.945Z,1015.68
2023-05-21T01:20:29.911Z,1015.66
2023-05-21T01:21:29.876Z,1015.63
2023-05-21T01:22:29.905Z,1015.62
2023-05-21T01:23:29.908Z,1015.67
2023-05-21T01:24:29.865Z,1015.68
2023-05-21T01:25:29.911Z,1015.61
2023-05-21T01:26:29.805Z,1015.62
2023-05-21T01:27:29.846Z,1015.66
2023-05-21T01:28:29.913Z,1015.64
2023-05-21T01:29:29.758Z,1015.68
2023-05-21T01:30:29.790Z,1015.66
2023-05-21T01:31:29.754Z,1015.67
2023-05-21T01:32:29.756Z,1015.63
2023-05-21T01:33:29.805Z,1015.63
2023-05-21T01:34:29.691Z,1015.57
2023-05-21T01:35:29.718Z,1015.57
2023-05-21T01:36:29.681Z,1015.55
2023-05-21T01:37:29.659Z,1015.55
2023-05-21T01:38:29.640Z,1015.56
2023-05-21T01:39:29.628Z,1015.55
2023-05-21T01:40:29.611Z,1015.51
2023-05-21T01:41:29.614Z,1015.53
2023-05-21T01:42:29.628Z,1015.47
2023-05-21T01:43:29.579Z,1015.49
2023-05-21T01:44:29.582Z,1015.47
2023-05-21T01:45:29.544Z,1015.52
2023-05-21T01:46:29.554Z,1015.48
2023-05-21T01:47:29.569Z,1015.47
2023-05-21T01:48:29.539Z,1015.49
2023-05-21T01:49:29.499Z,1015.52
2023-05-21T01:50:29.508Z,1015.48
2023-05-21T01:51:29.480Z,1015.45
2023-05-21T01:52:29.434Z,1015.46
2023-05-21T01:53:29.426Z,1015.41
2023-05-21T01:54:29.420Z,1015.41
2023-05-21T01:55:29.400Z,1015.36
2023-05-21T01:56:29.387Z,1015.41
2023-05-21T01:57:29.412Z,1015.42
2023-05-21T01:58:29.354Z,1015.44
2023-05-21T01:59:29.353Z,1015.45
2023-05-21T02:00:29.359Z,1015.44
2023-05-21T02:01:29.328Z,1015.42
2023-05-21T02:02:29.372Z,1015.42
2023-05-21T02:03:29.425Z,1015.37
2023-05-21T02:04:29.287Z,1015.38
2023-05-21T02:05:29.253Z,1015.40
2023-05-21T02:06:29.249Z,1015.37
2023-05-21T02:07:29.267Z,1015.38
2023-05-21T02:08:29.248Z,1015.37
2023-05-21T02:09:29.205Z,1015.35
2023-05-21T02:10:29.226Z,1015.32
2023-05-21T02:11:29.164Z,1015.31
2023-05-21T02:12:29.188Z,1015.32
2023-05-21T02:13:29.170Z,1015.28
2023-05-21T02:14:29.136Z,1015.28
2023-05-21T02:15:29.146Z,1015.28
2023-05-21T02:16:29.146Z,1015.30
2023-05-21T02:17:29.102Z,1015.30
2023-05-21T02:18:29.060Z,1015.28
2023-05-21T02:19:29.086Z,1015.28
2023-05-21T02:20:29.048Z,1015.27
2023-05-21T02:21:29.039Z,1015.24
2023-05-21T02:22:29.028Z,1015.26
2023-05-21T02:23:29.017Z,1015.25
2023-05-21T02:24:28.990Z,1015.24
2023-05-21T02:25:28.999Z,1015.27
2023-05-21T02:26:29.017Z,1015.28
2023-05-21T02:27:28.943Z,1015.29
2023-05-21T02:28:28.932Z,1015.32
2023-05-21T02:29:28.922Z,1015.27
2023-05-21T02:30:28.906Z,1015.28
2023-05-21T02:31:28.913Z,1015.25
2023-05-21T02:32:29.019Z,1015.30
2023-05-21T02:33:28.852Z,1015.28
2023-05-21T02:34:28.927Z,1015.31
2023-05-21T02:35:28.834Z,1015.35
2023-05-21T02:36:28.876Z,1015.30
2023-05-21T02:37:28.824Z,1015.30
2023-05-21T02:38:28.815Z,1015.32
2023-05-21T02:39:28.816Z,1015.31
2023-05-21T02:40:28.799Z,1015.32
2023-05-21T02:41:28.770Z,1015.30
2023-05-21T02:42:28.762Z,1015.29
2023-05-21T02:43:28.753Z,1015.31
2023-05-21T02:44:28.813Z,1015.33
2023-05-21T02:45:28.767Z,1015.28
2023-05-21T02:46:28.950Z,1015.36
2023-05-21T02:47:28.843Z,1015.32
2023-05-21T02:48:28.649Z,1015.31
2023-05-21T02:49:29.315Z,1015.32
2023-05-21T02:50:28.632Z,1015.37
2023-05-21T02:51:28.619Z,1015.32
2023-05-21T02:52:28.577Z,1015.31
2023-05-21T02:53:28.604Z,1015.34
2023-05-21T02:54:28.577Z,1015.34
2023-05-21T02:55:28.562Z,1015.31
2023-05-21T02:56:28.570Z,1015.33
2023-05-21T02:57:28.535Z,1015.29
2023-05-21T02:58:28.810Z,1015.29
2023-05-21T02:59:28.638Z,1015.25
2023-05-21T03:00:28.568Z,1015.28
2023-05-21T03:01:28.592Z,1015.29
2023-05-21T03:02:28.512Z,1015.27
2023-05-21T03:03:28.631Z,1015.27
2023-05-21T03:04:28.426Z,1015.24
2023-05-21T03:05:28.411Z,1015.26
2023-05-21T03:06:28.399Z,1015.30
2023-05-21T03:07:28.428Z,1015.25
2023-05-21T03:08:28.379Z,1015.26
2023-05-21T03:09:28.342Z,1015.29
2023-05-21T03:10:28.479Z,1015.30
2023-05-21T03:11:28.439Z,1015.27
2023-05-21T03:12:28.338Z,1015.30
2023-05-21T03:13:28.467Z,1015.29
2023-05-21T03:14:28.260Z,1015.26
2023-05-21T03:15:28.285Z,1015.26
2023-05-21T03:16:28.279Z,1015.25
2023-05-21T03:17:28.278Z,1015.20
2023-05-21T03:18:28.242Z,1015.22
2023-05-21T03:19:28.345Z,1015.19
2023-05-21T03:20:28.179Z,1015.24
2023-05-21T03:21:28.206Z,1015.19
2023-05-21T03:22:28.190Z,1015.19
2023-05-21T03:23:28.140Z,1015.20
2023-05-21T03:24:28.124Z,1015.22
2023-05-21T03:25:28.126Z,1015.21
2023-05-21T03:26:28.085Z,1015.22
2023-05-21T03:27:28.068Z,1015.19
2023-05-21T03:28:28.066Z,1015.19
2023-05-21T03:29:28.036Z,1015.15
2023-05-21T03:30:28.065Z,1015.17
2023-05-21T03:31:28.087Z,1015.15
2023-05-21T03:32:28.030Z,1015.16
2023-05-21T03:33:27.997Z,1015.14
2023-05-21T03:34:28.007Z,1015.12
2023-05-21T03:35:27.971Z,1015.12
2023-05-21T03:36:27.948Z,1015.12
2023-05-21T03:37:27.938Z,1015.13
2023-05-21T03:38:27.920Z,1015.15
2023-05-21T03:39:27.898Z,1015.13
2023-05-21T03:40:27.870Z,1015.12
2023-05-21T03:41:27.940Z,1015.12
2023-05-21T03:42:27.889Z,1015.10
2023-05-21T03:43:27.829Z,1015.12
2023-05-21T03:44:27.811Z,1015.14
2023-05-21T03:45:27.827Z,1015.15
2023-05-21T03:46:27.926Z,1015.14
2023-05-21T03:47:27.800Z,1015.11
2023-05-21T03:48:27.779Z,1015.11
2023-05-21T03:49:27.745Z,1015.09
2023-05-21T03:50:27.714Z,1015.11
2023-05-21T03:51:27.765Z,1015.13
2023-05-21T03:52:27.702Z,1015.14
2023-05-21T03:53:27.715Z,1015.12
2023-05-21T03:54:27.708Z,1015.13
2023-05-21T03:55:27.661Z,1015.13
2023-05-21T03:56:27.667Z,1015.13
2023-05-21T03:57:27.665Z,1015.12
2023-05-21T03:58:27.641Z,1015.12
2023-05-21T03:59:27.620Z,1015.11
2023-05-21T04:00:27.579Z,1015.14
2023-05-21T04:01:27.612Z,1015.11
2023-05-21T04:02:27.689Z,1015.15
2023-05-21T04:03:27.872Z,1015.11
2023-05-21T04:04:27.579Z,1015.16
2023-05-21T04:05:27.554Z,1015.16
2023-05-21T04:06:27.505Z,1015.21
2023-05-21T04:07:27.502Z,1015.23
2023-05-21T04:08:27.473Z,1015.22
2023-05-21T04:09:27.465Z,1015.20
2023-05-21T04:10:27.445Z,1015.22
2023-05-21T04:11:27.534Z,1015.16
2023-05-21T04:12:27.432Z,1015.16
2023-05-21T04:13:27.402Z,1015.18
2023-05-21T04:14:27.401Z,1015.16
2023-05-21T04:15:27.443Z,1015.13
2023-05-21T04:16:27.394Z,1015.16
2023-05-21T04:17:27.403Z,1015.15
2023-05-21T04:18:27.340Z,1015.15
2023-05-21T04:19:27.364Z,1015.14
2023-05-21T04:20:27.285Z,1015.16
2023-05-21T04:21:27.306Z,1015.18
2023-05-21T04:22:27.259Z,1015.18
2023-05-21T04:23:27.285Z,1015.17
2023-05-21T04:24:27.220Z,1015.17
2023-05-21T04:25:27.220Z,1015.18
2023-05-21T04:26:27.187Z,1015.20
2023-05-21T04:27:27.298Z,1015.17
2023-05-21T04:28:27.212Z,1015.17
2023-05-21T04:29:27.182Z,1015.21
2023-05-21T04:30:27.145Z,1015.21
2023-05-21T04:31:27.241Z,1015.20
2023-05-21T04:32:27.182Z,1015.22
2023-05-21T04:33:27.127Z,1015.21
2023-05-21T04:34:27.139Z,1015.24
2023-05-21T04:35:27.099Z,1015.25
2023-05-21T04:36:27.067Z,1015.30
2023-05-21T04:37:27.050Z,1015.23
2023-05-21T04:38:27.196Z,1015.25
2023-05-21T04:39:26.995Z,1015.24
2023-05-21T04:40:27.012Z,1015.27
2023-05-21T04:41:26.985Z,1015.24
2023-05-21T04:42:27.043Z,1015.25
2023-05-21T04:43:27.012Z,1015.20
2023-05-21T04:45:56.055Z,1015.21
2023-05-21T04:46:56.087Z,1015.18
2023-05-21T04:47:55.968Z,1015.20
2023-05-21T04:48:55.962Z,1015.19
2023-05-21T04:49:55.960Z,1015.18
2023-05-21T04:50:56.172Z,1015.21
2023-05-21T04:51:55.888Z,1015.22
2023-05-21T04:52:55.870Z,1015.22
2023-05-21T04:53:55.864Z,1015.24
2023-05-21T04:54:56.021Z,1015.20
2023-05-21T04:55:55.829Z,1015.22
2023-05-21T04:56:55.852Z,1015.24
2023-05-21T04:57:55.804Z,1015.26
2023-05-21T04:58:55.867Z,1015.23
2023-05-21T04:59:55.760Z,1015.24
2023-05-21T05:00:55.777Z,1015.27
2023-05-21T05:01:55.839Z,1015.27
2023-05-21T05:02:55.848Z,1015.25
2023-05-21T05:03:55.759Z,1015.28
2023-05-21T05:04:55.712Z,1015.28
2023-05-21T05:05:56.258Z,1015.26
2023-05-21T05:06:55.677Z,1015.27
2023-05-21T05:07:55.666Z,1015.23
2023-05-21T05:08:55.677Z,1015.25
2023-05-21T05:09:55.669Z,1015.22
2023-05-21T05:10:55.608Z,1015.26
2023-05-21T05:11:55.624Z,1015.25
2023-05-21T05:12:55.584Z,1015.22
2023-05-21T05:13:55.622Z,1015.26
2023-05-21T05:14:55.630Z,1015.27
2023-05-21T05:15:55.557Z,1015.33
2023-05-21T05:16:55.610Z,1015.32
2023-05-21T05:17:55.545Z,1015.31
2023-05-21T05:18:57.163Z,1015.31
2023-05-21T05:19:55.499Z,1015.28
2023-05-21T05:20:55.592Z,1015.27
2023-05-21T05:21:56.510Z,1015.22
2023-05-21T05:22:55.492Z,1015.19
2023-05-21T05:23:56.674Z,1015.20
2023-05-21T05:24:55.464Z,1015.20
2023-05-21T05:25:55.471Z,1015.19
2023-05-21T05:26:55.463Z,1015.18
2023-05-21T05:27:55.376Z,1015.21
2023-05-21T05:28:55.384Z,1015.22
2023-05-21T05:29:55.500Z,1015.21
2023-05-21T05:30:55.395Z,1015.22
2023-05-21T05:31:55.322Z,1015.22
2023-05-21T05:32:55.320Z,1015.24
2023-05-21T05:33:55.344Z,1015.26
2023-05-21T05:34:55.291Z,1015.24
2023-05-21T05:35:55.357Z,1015.19
2023-05-21T05:36:55.369Z,1015.19
2023-05-21T05:37:55.243Z,1015.19
2023-05-21T05:38:55.278Z,1015.16
2023-05-21T05:39:55.971Z,1015.17
2023-05-21T05:40:55.219Z,1015.16
2023-05-21T05:41:55.188Z,1015.16
2023-05-21T05:42:55.849Z,1015.12
2023-05-21T05:43:55.305Z,1015.13
2023-05-21T05:44:55.142Z,1015.16
2023-05-21T05:45:55.174Z,1015.13
2023-05-21T05:46:55.171Z,1015.15
2023-05-21T05:47:55.243Z,1015.13
2023-05-21T05:48:55.137Z,1015.15
2023-05-21T05:49:55.088Z,1015.14
2023-05-21T05:50:55.072Z,1015.16
2023-05-21T05:51:55.104Z,1015.14
2023-05-21T05:52:55.225Z,1015.12
2023-05-21T05:53:55.035Z,1015.11
2023-05-21T05:54:55.052Z,1015.08
2023-05-21T05:55:55.023Z,1015.03
2023-05-21T05:56:55.041Z,1015.01
2023-05-21T05:57:54.969Z,1015.02
2023-05-21T05:58:54.952Z,1015.02
2023-05-21T05:59:55.906Z,1015.00
2023-05-21T06:00:55.011Z,1015.02
2023-05-21T06:01:54.958Z,1014.97
2023-05-21T06:02:55.073Z,1015.02
2023-05-21T06:03:54.917Z,1014.99
2023-05-21T06:04:55.296Z,1015.02
2023-05-21T06:05:54.927Z,1015.02
2023-05-21T06:06:55.205Z,1015.01
2023-05-21T06:07:54.836Z,1015.01
2023-05-21T06:08:54.836Z,1015.02
2023-05-21T06:09:54.795Z,1015.02
2023-05-21T06:10:54.860Z,1015.07
2023-05-21T06:11:54.925Z,1015.05
2023-05-21T06:12:54.782Z,1015.00
2023-05-21T06:13:54.754Z,1015.02
2023-05-21T06:14:54.768Z,1015.07
2023-05-21T06:15:54.806Z,1015.09
2023-05-21T06:16:54.712Z,1014.97
2023-05-21T06:17:55.075Z,1015.01
2023-05-21T06:18:54.736Z,1015.04
2023-05-21T06:19:54.656Z,1015.04
2023-05-21T06:20:54.694Z,1015.00
2023-05-21T06:21:54.652Z,1015.00
2023-05-21T06:22:54.717Z,1014.99
2023-05-21T06:23:55.280Z,1014.97
2023-05-21T06:24:54.630Z,1014.99
2023-05-21T06:25:54.593Z,1015.00
2023-05-21T06:26:54.590Z,1015.01
2023-05-21T06:27:54.632Z,1014.99
2023-05-21T06:28:54.596Z,1015.02
2023-05-21T06:29:54.531Z,1015.02
2023-05-21T06:30:54.526Z,1015.02
2023-05-21T06:31:54.503Z,1014.99
2023-05-21T06:32:54.639Z,1014.98
2023-05-21T06:33:54.706Z,1015.01
2023-05-21T06:34:54.520Z,1014.98
2023-05-21T06:35:54.469Z,1014.99
2023-05-21T06:36:54.464Z,1014.99
2023-05-21T06:37:54.430Z,1014.96
2023-05-21T06:38:54.428Z,1014.95
2023-05-21T06:39:54.430Z,1014.93
2023-05-21T06:40:54.398Z,1014.90
2023-05-21T06:41:54.390Z,1014.89
2023-05-21T06:42:54.360Z,1014.87
2023-05-21T06:43:54.411Z,1014.88
2023-05-21T06:44:54.490Z,1014.85
2023-05-21T06:45:54.389Z,1014.86
2023-05-21T06:46:54.319Z,1014.83
2023-05-21T06:47:54.987Z,1014.83
2023-05-21T06:48:54.348Z,1014.81
2023-05-21T06:49:54.284Z,1014.80
2023-05-21T06:50:54.263Z,1014.81
2023-05-21T06:51:54.260Z,1014.79
2023-05-21T06:52:54.243Z,1014.79
2023-05-21T06:53:54.307Z,1014.77
2023-05-21T06:54:54.286Z,1014.81
2023-05-21T06:55:54.193Z,1014.78
2023-05-21T06:56:54.184Z,1014.78
2023-05-21T06:57:54.301Z,1014.79
2023-05-21T06:58:54.194Z,1014.83
2023-05-21T06:59:54.192Z,1014.77
2023-05-21T07:00:54.197Z,1014.75
2023-05-21T07:01:54.130Z,1014.73
2023-05-21T07:02:54.181Z,1014.74
2023-05-21T07:03:54.087Z,1014.71
2023-05-21T07:04:54.239Z,1014.75
2023-05-21T07:06:01.595Z,1014.75
2023-05-21T07:06:54.076Z,1014.72
2023-05-21T07:07:54.052Z,1014.73
2023-05-21T07:08:54.028Z,1014.71
2023-05-21T07:09:53.994Z,1014.74
2023-05-21T07:10:54.021Z,1014.74
2023-05-21T07:11:53.999Z,1014.78
2023-05-21T07:12:54.009Z,1014.79
2023-05-21T07:13:53.934Z,1014.81
2023-05-21T07:14:53.917Z,1014.81
2023-05-21T07:15:53.988Z,1014.82
2023-05-21T07:16:53.945Z,1014.77
2023-05-21T07:17:54.047Z,1014.75
2023-05-21T07:18:53.951Z,1014.77
2023-05-21T07:19:53.853Z,1014.82
2023-05-21T07:20:53.906Z,1014.78
2023-05-21T07:21:53.854Z,1014.81
2023-05-21T07:22:53.825Z,1014.82
2023-05-21T07:23:53.820Z,1014.82
2023-05-21T07:24:53.876Z,1014.82
2023-05-21T07:25:53.814Z,1014.86
2023-05-21T07:26:53.868Z,1014.84
2023-05-21T07:27:53.758Z,1014.79
2023-05-21T07:28:53.904Z,1014.82
2023-05-21T07:29:53.788Z,1014.81
2023-05-21T07:30:53.753Z,1014.82
2023-05-21T07:31:53.806Z,1014.81
2023-05-21T07:32:53.724Z,1014.79
2023-05-21T07:33:53.677Z,1014.77
2023-05-21T07:34:54.452Z,1014.76
2023-05-21T07:35:53.664Z,1014.77
2023-05-21T07:36:53.724Z,1014.74
2023-05-21T07:37:54.201Z,1014.74
2023-05-21T07:38:53.594Z,1014.70
2023-05-21T07:39:53.608Z,1014.68
2023-05-21T07:40:53.654Z,1014.70
2023-05-21T07:41:53.636Z,1014.68
2023-05-21T07:42:53.560Z,1014.62
2023-05-21T07:43:53.646Z,1014.54
2023-05-21T07:44:53.578Z,1014.54
2023-05-21T07:45:53.542Z,1014.60
2023-05-21T07:46:54.138Z,1014.59
2023-05-21T07:47:53.550Z,1014.61
2023-05-21T07:48:53.472Z,1014.63
2023-05-21T07:49:53.482Z,1014.66
2023-05-21T07:50:53.686Z,1014.66
2023-05-21T07:51:53.455Z,1014.65
2023-05-21T07:52:53.502Z,1014.67
2023-05-21T07:53:55.268Z,1014.68
2023-05-21T07:54:53.414Z,1014.63
2023-05-21T07:55:53.401Z,1014.65
2023-05-21T07:56:53.359Z,1014.62
2023-05-21T07:57:53.381Z,1014.60
2023-05-21T07:58:53.433Z,1014.63
2023-05-21T07:59:53.652Z,1014.66
2023-05-21T08:00:53.327Z,1014.57
2023-05-21T08:01:53.309Z,1014.58
2023-05-21T08:02:53.395Z,1014.56
2023-05-21T08:03:53.535Z,1014.59
2023-05-21T08:04:53.375Z,1014.53
2023-05-21T08:05:53.360Z,1014.56
2023-05-21T08:06:53.367Z,1014.61
2023-05-21T08:07:53.230Z,1014.57
2023-05-21T08:08:53.200Z,1014.60
2023-05-21T08:09:53.321Z,1014.60
2023-05-21T08:10:53.179Z,1014.62
2023-05-21T08:11:53.174Z,1014.61
2023-05-21T08:12:53.194Z,1014.65
2023-05-21T08:13:53.164Z,1014.62
2023-05-21T08:14:53.139Z,1014.64
2023-05-21T08:15:53.677Z,1014.60
2023-05-21T08:16:53.158Z,1014.63
2023-05-21T08:17:53.121Z,1014.67
2023-05-21T08:18:53.134Z,1014.65
2023-05-21T08:19:53.151Z,1014.61
2023-05-21T08:20:53.080Z,1014.68
2023-05-21T08:21:53.255Z,1014.66
2023-05-21T08:22:53.051Z,1014.69
2023-05-21T08:23:53.023Z,1014.68
2023-05-21T08:24:53.034Z,1014.68
2023-05-21T08:25:52.986Z,1014.69
2023-05-21T08:26:52.988Z,1014.71
2023-05-21T08:27:53.026Z,1014.69
2023-05-21T08:28:52.932Z,1014.72
2023-05-21T08:29:52.975Z,1014.75
2023-05-21T08:30:52.944Z,1014.72
2023-05-21T08:31:52.969Z,1014.72
2023-05-21T08:32:52.924Z,1014.72
2023-05-21T08:33:53.014Z,1014.78
2023-05-21T08:34:52.988Z,1014.77
2023-05-21T08:35:52.897Z,1014.81
2023-05-21T08:36:52.870Z,1014.76
2023-05-21T08:37:52.851Z,1014.82
2023-05-21T08:38:52.809Z,1014.78
2023-05-21T08:39:52.817Z,1014.82
2023-05-21T08:40:52.787Z,1014.84
2023-05-21T08:41:52.783Z,1014.83
2023-05-21T08:42:52.815Z,1014.85
2023-05-21T08:43:54.904Z,1014.80
2023-05-21T08:44:53.043Z,1014.79
2023-05-21T08:45:52.997Z,1014.76
2023-05-21T08:46:52.713Z,1014.80
2023-05-21T08:47:52.741Z,1014.82
2023-05-21T08:48:53.390Z,1014.76
2023-05-21T08:49:52.693Z,1014.77
2023-05-21T08:50:52.660Z,1014.75
2023-05-21T08:51:52.866Z,1014.74
2023-05-21T08:52:52.638Z,1014.76
2023-05-21T08:53:52.626Z,1014.72
2023-05-21T08:54:52.610Z,1014.73
2023-05-21T08:55:52.622Z,1014.71
2023-05-21T08:56:52.585Z,1014.71
2023-05-21T08:57:52.725Z,1014.70
2023-05-21T08:58:52.542Z,1014.67
2023-05-21T08:59:52.555Z,1014.70
2023-05-21T09:00:52.564Z,1014.71
2023-05-21T09:01:52.733Z,1014.74
2023-05-21T09:02:52.598Z,1014.69
2023-05-21T09:03:52.616Z,1014.72
2023-05-21T09:04:52.462Z,1014.71
2023-05-21T09:05:54.003Z,1014.67
2023-05-21T09:06:55.880Z,1014.65
2023-05-21T09:07:52.771Z,1014.60
2023-05-21T09:08:52.423Z,1014.62
2023-05-21T09:09:52.395Z,1014.63
2023-05-21T09:10:52.440Z,1014.52
2023-05-21T09:12:02.369Z,1014.57
2023-05-21T09:12:53.885Z,1014.59
2023-05-21T09:13:52.370Z,1014.59
2023-05-21T09:14:52.363Z,1014.51
2023-05-21T09:15:52.430Z,1014.54
2023-05-21T09:16:52.417Z,1014.50
2023-05-21T09:17:52.394Z,1014.47
2023-05-21T09:18:52.301Z,1014.48
2023-05-21T09:19:52.929Z,1014.49
2023-05-21T09:20:52.271Z,1014.51
2023-05-21T09:21:52.297Z,1014.46
2023-05-21T09:22:52.272Z,1014.47
2023-05-21T09:23:52.863Z,1014.43
2023-05-21T09:24:52.193Z,1014.44
2023-05-21T09:25:52.195Z,1014.44
2023-05-21T09:26:52.183Z,1014.38
2023-05-21T09:27:52.187Z,1014.35
2023-05-21T09:28:52.236Z,1014.36
2023-05-21T09:29:52.128Z,1014.38
2023-05-21T09:30:52.108Z,1014.35
2023-05-21T09:31:52.140Z,1014.31
2023-05-21T09:32:52.271Z,1014.35
2023-05-21T09:33:52.132Z,1014.32
2023-05-21T09:34:52.147Z,1014.30
2023-05-21T09:35:52.082Z,1014.33
2023-05-21T09:36:52.050Z,1014.29
2023-05-21T09:37:52.947Z,1014.30
2023-05-21T09:38:52.375Z,1014.30
2023-05-21T09:39:52.012Z,1014.30
2023-05-21T09:40:52.044Z,1014.29
2023-05-21T09:41:52.010Z,1014.27
2023-05-21T09:42:52.135Z,1014.29
2023-05-21T09:43:51.964Z,1014.30
2023-05-21T09:44:51.968Z,1014.34
2023-05-21T09:45:52.102Z,1014.28
2023-05-21T09:46:51.958Z,1014.30
2023-05-21T09:47:52.406Z,1014.28
2023-05-21T09:48:52.211Z,1014.25
2023-05-21T09:49:51.855Z,1014.30
2023-05-21T09:50:52.058Z,1014.31
2023-05-21T09:51:51.995Z,1014.30
2023-05-21T09:52:51.880Z,1014.30
2023-05-21T09:53:51.822Z,1014.26
2023-05-21T09:54:51.800Z,1014.22
2023-05-21T09:55:51.801Z,1014.25
2023-05-21T09:56:52.028Z,1014.24
2023-05-21T09:57:51.819Z,1014.20
2023-05-21T09:58:51.771Z,1014.16
2023-05-21T09:59:51.808Z,1014.20
2023-05-21T10:00:51.756Z,1014.14
2023-05-21T10:01:51.828Z,1014.14
2023-05-21T10:02:52.620Z,1014.14
2023-05-21T10:03:51.700Z,1014.14
2023-05-21T10:04:51.989Z,1014.10
2023-05-21T10:05:51.751Z,1014.08
2023-05-21T10:06:51.660Z,1014.07
2023-05-21T10:07:51.631Z,1014.13
2023-05-21T10:08:51.652Z,1014.03
2023-05-21T10:09:51.764Z,1014.03
2023-05-21T10:10:51.585Z,1014.01
2023-05-21T10:11:51.668Z,1014.04
2023-05-21T10:12:51.860Z,1013.97
2023-05-21T10:13:51.573Z,1014.01
2023-05-21T10:14:51.543Z,1014.00
2023-05-21T10:15:51.569Z,1013.99
2023-05-21T10:16:51.595Z,1013.99
2023-05-21T10:17:51.560Z,1014.00
2023-05-21T10:18:51.565Z,1013.99
2023-05-21T10:19:51.534Z,1014.02
2023-05-21T10:20:51.474Z,1014.01
2023-05-21T10:21:52.598Z,1014.01
2023-05-21T10:22:51.519Z,1013.97
2023-05-21T10:23:51.415Z,1013.94
2023-05-21T10:24:51.400Z,1013.96
2023-05-21T10:25:51.559Z,1013.95
2023-05-21T10:26:51.373Z,1013.94
2023-05-21T10:27:51.377Z,1013.88
2023-05-21T10:28:51.329Z,1013.89
2023-05-21T10:29:51.375Z,1013.91
2023-05-21T10:30:51.329Z,1013.83
2023-05-21T10:31:51.359Z,1013.88
2023-05-21T10:32:51.589Z,1013.85
2023-05-21T10:33:51.305Z,1013.82
2023-05-21T10:34:51.284Z,1013.85
2023-05-21T10:35:53.110Z,1013.80
2023-05-21T10:36:51.346Z,1013.90
2023-05-21T10:37:51.414Z,1013.84
2023-05-21T10:38:51.235Z,1013.83
2023-05-21T10:39:51.273Z,1013.81
2023-05-21T10:40:51.240Z,1013.78
2023-05-21T10:41:53.775Z,1013.71
2023-05-21T10:42:51.193Z,1013.68
2023-05-21T10:43:51.165Z,1013.71
2023-05-21T10:44:51.150Z,1013.69
2023-05-21T10:45:51.159Z,1013.63
2023-05-21T10:46:51.134Z,1013.65
2023-05-21T10:47:52.903Z,1013.68
2023-05-21T10:48:51.122Z,1013.61
2023-05-21T10:49:51.109Z,1013.57
2023-05-21T10:50:51.062Z,1013.51
2023-05-21T10:51:51.038Z,1013.54
2023-05-21T10:52:51.088Z,1013.57
2023-05-21T10:53:51.046Z,1013.59
2023-05-21T10:54:51.011Z,1013.70
2023-05-21T10:55:51.066Z,1013.66
2023-05-21T10:56:51.018Z,1013.67
2023-05-21T10:57:51.304Z,1013.65
2023-05-21T10:58:50.932Z,1013.67
2023-05-21T10:59:50.951Z,1013.71
2023-05-21T11:00:51.005Z,1013.64
2023-05-21T11:01:50.960Z,1013.67
2023-05-21T11:02:51.093Z,1013.64
2023-05-21T11:03:50.924Z,1013.62
2023-05-21T11:04:50.857Z,1013.58
2023-05-21T11:05:50.867Z,1013.58
2023-05-21T11:06:50.912Z,1013.65
2023-05-21T11:07:50.850Z,1013.60
2023-05-21T11:08:52.187Z,1013.57
2023-05-21T11:09:50.862Z,1013.57
2023-05-21T11:10:51.573Z,1013.53
2023-05-21T11:11:50.858Z,1013.62
2023-05-21T11:12:50.771Z,1013.61
2023-05-21T11:13:50.775Z,1013.59
2023-05-21T11:14:50.725Z,1013.58
2023-05-21T11:15:50.788Z,1013.60
2023-05-21T11:16:50.839Z,1013.59
2023-05-21T11:17:50.737Z,1013.60
2023-05-21T11:18:50.828Z,1013.57
2023-05-21T11:19:50.674Z,1013.59
2023-05-21T11:20:50.665Z,1013.61
2023-05-21T11:21:50.749Z,1013.60
2023-05-21T11:22:50.702Z,1013.57
2023-05-21T11:23:50.624Z,1013.59
2023-05-21T11:24:51.149Z,1013.57
2023-05-21T11:25:50.629Z,1013.61
2023-05-21T11:26:50.703Z,1013.59
2023-05-21T11:27:50.662Z,1013.59
2023-05-21T11:28:50.576Z,1013.59
2023-05-21T11:29:50.581Z,1013.62
2023-05-21T11:30:50.526Z,1013.67
2023-05-21T11:31:50.532Z,1013.59
2023-05-21T11:32:50.741Z,1013.56
2023-05-21T11:33:50.593Z,1013.54
2023-05-21T11:34:50.815Z,1013.54
2023-05-21T11:35:50.469Z,1013.59
2023-05-21T11:36:50.542Z,1013.59
2023-05-21T11:37:50.440Z,1013.58
2023-05-21T11:38:50.574Z,1013.55
2023-05-21T11:39:50.486Z,1013.56
2023-05-21T11:40:50.419Z,1013.52
2023-05-21T11:41:50.408Z,1013.51
2023-05-21T11:42:50.420Z,1013.45
2023-05-21T11:43:50.427Z,1013.52
2023-05-21T11:44:50.431Z,1013.50
2023-05-21T11:45:50.366Z,1013.50
2023-05-21T11:46:50.354Z,1013.47
2023-05-21T11:47:50.937Z,1013.43
2023-05-21T11:48:50.318Z,1013.43
2023-05-21T11:49:50.466Z,1013.46
2023-05-21T11:50:50.261Z,1013.49
2023-05-21T11:51:50.268Z,1013.53
2023-05-21T11:52:50.269Z,1013.55
2023-05-21T11:53:50.247Z,1013.52
2023-05-21T11:55:00.086Z,1013.51
2023-05-21T11:55:50.279Z,1013.46
2023-05-21T11:56:50.213Z,1013.49
2023-05-21T11:57:54.386Z,1013.47
2023-05-21T11:58:50.197Z,1013.51
2023-05-21T11:59:50.287Z,1013.47
2023-05-21T12:00:50.136Z,1013.45
2023-05-21T12:01:51.311Z,1013.43
2023-05-21T12:02:50.345Z,1013.46
2023-05-21T12:03:50.190Z,1013.46
2023-05-21T12:04:50.114Z,1013.52
2023-05-21T12:05:50.177Z,1013.48
2023-05-21T12:06:50.098Z,1013.50